createdAt,value
2023-03-30T00:04:06.613Z,9.25752508361204
2023-03-30T00:15:51.332Z,9.224080267558529
2023-03-30T00:22:13.186Z,10.160535117056856
2023-03-30T00:28:33.049Z,10.451505016722408
2023-03-30T00:34:57.722Z,10.839464882943144
2023-03-30T00:41:17.105Z,11.311036789297658
2023-03-30T00:47:37.096Z,7.277591973244147
2023-03-30T00:53:57.020Z,10.438127090301004
2023-03-30T01:00:18.989Z,8.846153846153847
2023-03-30T01:13:28.544Z,10.153846153846153
2023-03-30T01:25:50.896Z,8.66220735785953
2023-03-30T01:42:01.731Z,7.94314381270903
2023-03-30T01:54:20.730Z,9.755852842809364
2023-03-30T02:00:41.618Z,7.51505016722408
2023-03-30T02:07:00.981Z,7.919732441471572
2023-03-30T02:18:42.928Z,4.511705685618729
2023-03-30T02:25:20.657Z,7.294314381270903
2023-03-30T02:32:45.249Z,6.638795986622074
2023-03-30T02:39:06.729Z,7.842809364548495
2023-03-30T02:45:27.367Z,5.170568561872909
2023-03-30T02:51:47.045Z,5.648829431438127
2023-03-30T02:58:08.424Z,5.936454849498328
2023-03-30T03:04:28.498Z,6.5719063545150505
2023-03-30T03:10:48.825Z,6.036789297658863
2023-03-30T03:21:14.870Z,5.454849498327759
2023-03-30T03:27:34.725Z,4.695652173913044
2023-03-30T03:33:56.267Z,5.842809364548495
2023-03-30T03:40:16.495Z,5.575250836120401
2023-03-30T03:47:55.711Z,5.384615384615385
2023-03-30T03:54:15.295Z,5.147157190635451
2023-03-30T04:00:36.400Z,5.505016722408027
2023-03-30T04:06:58.177Z,2.8963210702341136
2023-03-30T04:14:18.178Z,2.05685618729097
2023-03-30T04:20:39.140Z,2.5418060200668897
2023-03-30T04:26:59.795Z,1.2508361204013378
2023-03-30T04:33:20.469Z,2.682274247491639
2023-03-30T04:42:52.093Z,2.3076923076923075
2023-03-30T04:49:25.330Z,2.759197324414716
2023-03-30T04:55:47.188Z,2.117056856187291
2023-03-30T05:02:08.511Z,2.274247491638796
2023-03-30T05:08:27.911Z,2.036789297658863
2023-03-30T05:14:48.402Z,4.668896321070235
2023-03-30T05:21:07.937Z,2.68561872909699
2023-03-30T05:29:19.631Z,1.5250836120401339
2023-03-30T05:35:41.460Z,2.0334448160535117
2023-03-30T05:46:44.956Z,2.301003344481605
2023-03-30T05:53:07.022Z,2.5551839464882944
2023-03-30T06:04:52.868Z,1.1505016722408026
2023-03-30T06:11:15.051Z,1.882943143812709
2023-03-30T06:17:37.149Z,1.5183946488294315
2023-03-30T06:29:59.784Z,1.5351170568561874
2023-03-30T06:36:21.525Z,1.157190635451505
2023-03-30T06:44:56.447Z,2.779264214046823
2023-03-30T06:51:18.089Z,1.625418060200669
2023-03-30T06:57:40.042Z,3.0468227424749164
2023-03-30T07:11:13.899Z,1.9866220735785953
2023-03-30T07:17:35.781Z,1.882943143812709
2023-03-30T07:23:57.391Z,1.7090301003344481
2023-03-30T07:30:22.235Z,2.311036789297659
2023-03-30T07:36:45.586Z,1.5050167224080269
2023-03-30T07:48:27.841Z,3.0334448160535117
2023-03-30T07:54:50.806Z,1.3244147157190636
2023-03-30T08:01:13.737Z,1.859531772575251
2023-03-30T08:07:35.684Z,1.8160535117056855
2023-03-30T08:13:58.787Z,1.806020066889632
2023-03-30T08:20:53.084Z,1.7625418060200668
2023-03-30T08:27:15.406Z,2.682274247491639
2023-03-30T08:39:22.627Z,5.605351170568562
2023-03-30T08:48:10.253Z,1.826086956521739
2023-03-30T08:54:32.711Z,1.665551839464883
2023-03-30T09:03:23.979Z,1.0568561872909699
2023-03-30T09:09:48.629Z,1.4983277591973243
2023-03-30T09:16:11.968Z,1.6755852842809364
2023-03-30T09:23:35.041Z,1.0501672240802675
2023-03-30T09:29:57.417Z,1.7357859531772575
2023-03-30T09:36:20.463Z,1.37123745819398
2023-03-30T09:42:43.478Z,2.0936454849498327
2023-03-30T09:52:44.710Z,1.7892976588628762
2023-03-30T09:59:08.410Z,2.508361204013378
2023-03-30T10:05:31.161Z,3.1638795986622075
2023-03-30T10:11:54.446Z,1.491638795986622
2023-03-30T10:18:18.013Z,2.076923076923077
2023-03-30T10:24:43.615Z,3.923076923076923
2023-03-30T10:31:07.548Z,2.7525083612040135
2023-03-30T10:43:47.640Z,7.277591973244147
2023-03-30T10:50:10.481Z,3.0501672240802677
2023-03-30T11:02:09.010Z,2.040133779264214
2023-03-30T11:08:31.797Z,3.648829431438127
2023-03-30T11:16:39.494Z,2.6220735785953178
2023-03-30T11:27:36.904Z,2.6923076923076925
2023-03-30T11:33:59.212Z,4.40133779264214
2023-03-30T11:40:22.763Z,4.270903010033445
2023-03-30T11:48:01.542Z,3.4448160535117056
2023-03-30T11:54:24.285Z,3.8060200668896322
2023-03-30T12:00:46.585Z,3.5384615384615383
2023-03-30T12:07:10.020Z,5.043478260869565
2023-03-30T12:13:44.537Z,3.5551839464882944
2023-03-30T12:25:10.089Z,5.290969899665551
2023-03-30T12:36:26.112Z,3.8528428093645486
2023-03-30T12:42:48.460Z,1.8729096989966556
2023-03-30T12:55:02.500Z,2.3545150501672243
2023-03-30T13:01:26.021Z,3.789297658862876
2023-03-30T13:10:44.415Z,1.8528428093645486
2023-03-30T13:17:07.147Z,1.9866220735785953
2023-03-30T13:23:29.782Z,2.839464882943144
2023-03-30T13:29:52.662Z,2.688963210702341
2023-03-30T13:36:15.434Z,2.5016722408026757
2023-03-30T13:42:37.972Z,2.528428093645485
2023-03-30T13:49:00.538Z,4.2207357859531776
2023-03-30T13:55:23.445Z,3.096989966555184
2023-03-30T14:05:25.061Z,4.137123745819398
2023-03-30T14:17:33.579Z,6.016722408026756
2023-03-30T14:23:56.690Z,4.9397993311036785
2023-03-30T14:30:19.927Z,3.9130434782608696
2023-03-30T14:36:42.512Z,2.7123745819397995
2023-03-30T14:43:05.413Z,3.311036789297659
2023-03-30T14:49:28.357Z,1.8361204013377928
2023-03-30T14:55:50.795Z,1.7224080267558528
2023-03-30T15:05:50.153Z,3.301003344481605
2023-03-30T15:12:12.881Z,3.190635451505017
2023-03-30T15:24:36.139Z,2.551839464882943
2023-03-30T15:30:59.400Z,4.384615384615385
2023-03-30T15:37:22.001Z,2.8963210702341136
2023-03-30T15:43:44.805Z,4.046822742474917
2023-03-30T15:50:07.381Z,3.160535117056856
2023-03-30T15:56:29.870Z,4.0200668896321075
2023-03-30T16:02:52.670Z,3.0
2023-03-30T16:15:10.683Z,2.74247491638796
2023-03-30T16:21:34.291Z,3.5819397993311037
2023-03-30T16:33:54.078Z,3.591973244147157
2023-03-30T16:41:05.180Z,3.4782608695652173
2023-03-30T16:49:01.628Z,4.882943143812709
2023-03-30T16:55:24.193Z,4.464882943143813
2023-03-30T17:01:47.255Z,3.408026755852843
2023-03-30T17:12:22.720Z,3.488294314381271
2023-03-30T17:18:45.702Z,4.093645484949833
2023-03-30T17:25:08.789Z,3.5351170568561874
2023-03-30T17:31:31.953Z,4.290969899665551
2023-03-30T17:40:27.296Z,4.033444816053512
2023-03-30T17:46:50.029Z,4.294314381270903
2023-03-30T17:53:10.293Z,3.608695652173913
2023-03-30T18:01:01.792Z,4.096989966555184
2023-03-30T18:07:22.321Z,4.913043478260869
2023-03-30T18:13:43.864Z,4.518394648829432
2023-03-30T18:21:44.227Z,5.086956521739131
2023-03-30T18:30:16.624Z,3.8260869565217392
2023-03-30T18:42:17.006Z,4.093645484949833
2023-03-30T18:48:38.758Z,5.053511705685619
2023-03-30T18:54:59.938Z,3.9096989966555182
2023-03-30T19:05:44.653Z,3.9096989966555182
2023-03-30T19:12:06.902Z,2.9264214046822743
2023-03-30T19:18:28.253Z,3.367892976588629
2023-03-30T19:24:51.471Z,5.411371237458194
2023-03-30T19:34:43.799Z,4.478260869565218
2023-03-30T19:45:17.765Z,5.7558528428093645
2023-03-30T19:53:59.241Z,4.331103678929765
2023-03-30T20:00:22.851Z,4.561872909698996
2023-03-30T20:06:45.214Z,5.080267558528428
2023-03-30T20:15:17.753Z,4.478260869565218
2023-03-30T20:21:39.031Z,5.672240802675585
2023-03-30T20:29:24.157Z,4.2207357859531776
2023-03-30T20:35:45.744Z,4.608695652173913
2023-03-30T20:42:05.331Z,5.117056856187291
2023-03-30T20:48:27.816Z,3.5351170568561874
2023-03-30T20:54:48.242Z,5.505016722408027
2023-03-30T21:01:09.602Z,6.2207357859531776
2023-03-30T21:07:28.877Z,4.729096989966555
2023-03-30T21:13:49.118Z,5.190635451505017
2023-03-30T21:20:10.428Z,4.832775919732441
2023-03-30T21:26:30.541Z,3.9933110367892977
2023-03-30T21:32:51.788Z,3.782608695652174
2023-03-30T21:39:12.326Z,4.852842809364549
2023-03-30T21:45:32.989Z,4.7157190635451505
2023-03-30T21:51:54.265Z,5.023411371237458
2023-03-30T21:58:15.988Z,3.9264214046822743
2023-03-30T22:04:35.529Z,3.6354515050167224
2023-03-30T22:24:51.434Z,3.702341137123746
2023-03-30T22:31:13.537Z,3.9163879598662206
2023-03-30T22:37:33.103Z,5.013377926421405
2023-03-30T22:43:52.489Z,3.0066889632107023
2023-03-30T23:00:59.541Z,4.4280936454849495
2023-03-30T23:08:00.805Z,4.270903010033445
2023-03-30T23:14:20.852Z,5.133779264214047
2023-03-30T23:25:02.264Z,3.5418060200668897
2023-03-30T23:31:21.078Z,2.939799331103679
2023-03-30T23:42:04.427Z,3.5852842809364547
2023-03-30T23:48:35.503Z,4.705685618729097
